sensor_id;sensor_type;location;lat;lon;timestamp;pressure;altitude;pressure_sealevel;temperature;humidity
51460;BME280;37534;39.772;2.718;2022-10-16T00:01:10;101333.22;;;20.42;64.61
51460;BME280;37534;39.772;2.718;2022-10-16T00:03:38;101330.28;;;20.32;66.17
51460;BME280;37534;39.772;2.718;2022-10-16T00:06:04;101329.03;;;20.24;66.04
51460;BME280;37534;39.772;2.718;2022-10-16T00:08:31;101327.66;;;20.32;64.49
51460;BME280;37534;39.772;2.718;2022-10-16T00:11:01;101331.38;;;20.28;64.81
51460;BME280;37534;39.772;2.718;2022-10-16T00:13:29;101325.09;;;20.47;64.31
51460;BME280;37534;39.772;2.718;2022-10-16T00:15:58;101325.28;;;20.28;65.27
51460;BME280;37534;39.772;2.718;2022-10-16T00:18:24;101341.53;;;20.35;66.13
51460;BME280;37534;39.772;2.718;2022-10-16T00:20:50;101334.00;;;20.28;67.53
51460;BME280;37534;39.772;2.718;2022-10-16T00:23:15;101330.78;;;20.23;68.84
51460;BME280;37534;39.772;2.718;2022-10-16T00:25:41;101330.72;;;20.09;70.63
51460;BME280;37534;39.772;2.718;2022-10-16T00:28:06;101331.41;;;19.97;71.57
51460;BME280;37534;39.772;2.718;2022-10-16T00:30:32;101337.50;;;19.97;69.63
51460;BME280;37534;39.772;2.718;2022-10-16T00:32:57;101332.56;;;20.23;68.54
51460;BME280;37534;39.772;2.718;2022-10-16T00:35:23;101346.50;;;20.23;68.29
51460;BME280;37534;39.772;2.718;2022-10-16T00:37:49;101338.09;;;20.18;67.85
51460;BME280;37534;39.772;2.718;2022-10-16T00:40:14;101345.06;;;20.33;66.42
51460;BME280;37534;39.772;2.718;2022-10-16T00:42:40;101360.09;;;20.46;65.29
51460;BME280;37534;39.772;2.718;2022-10-16T00:45:08;101357.47;;;20.46;66.34
51460;BME280;37534;39.772;2.718;2022-10-16T00:47:47;101369.03;;;20.74;69.42
51460;BME280;37534;39.772;2.718;2022-10-16T00:50:26;101376.38;;;21.12;66.63
51460;BME280;37534;39.772;2.718;2022-10-16T00:52:52;101375.13;;;21.48;60.93
51460;BME280;37534;39.772;2.718;2022-10-16T00:55:18;101369.09;;;21.31;61.81
51460;BME280;37534;39.772;2.718;2022-10-16T00:57:45;101367.28;;;21.17;63.24
51460;BME280;37534;39.772;2.718;2022-10-16T01:00:13;101361.38;;;20.99;63.97
51460;BME280;37534;39.772;2.718;2022-10-16T01:02:39;101332.41;;;20.86;63.51
51460;BME280;37534;39.772;2.718;2022-10-16T01:05:05;101312.47;;;20.84;64.53
51460;BME280;37534;39.772;2.718;2022-10-16T01:10:45;101304.50;;;20.85;63.70
51460;BME280;37534;39.772;2.718;2022-10-16T01:13:35;101295.06;;;21.12;62.73
51460;BME280;37534;39.772;2.718;2022-10-16T01:16:31;101260.34;;;21.35;61.47
51460;BME280;37534;39.772;2.718;2022-10-16T01:19:05;101255.69;;;21.26;61.46
51460;BME280;37534;39.772;2.718;2022-10-16T01:21:39;101255.13;;;21.21;60.80
51460;BME280;37534;39.772;2.718;2022-10-16T01:27:13;101221.75;;;21.37;57.45
51460;BME280;37534;39.772;2.718;2022-10-16T01:32:33;101224.66;;;21.33;60.41
51460;BME280;37534;39.772;2.718;2022-10-16T01:35:18;101202.09;;;21.30;61.33
51460;BME280;37534;39.772;2.718;2022-10-16T01:38:02;101227.47;;;21.30;61.44
51460;BME280;37534;39.772;2.718;2022-10-16T01:40:30;101234.88;;;21.23;61.39
51460;BME280;37534;39.772;2.718;2022-10-16T01:43:08;101245.59;;;21.20;62.26
51460;BME280;37534;39.772;2.718;2022-10-16T01:45:36;101258.41;;;21.24;65.04
51460;BME280;37534;39.772;2.718;2022-10-16T01:48:04;101263.75;;;21.08;65.24
51460;BME280;37534;39.772;2.718;2022-10-16T01:50:35;101266.75;;;21.02;63.84
51460;BME280;37534;39.772;2.718;2022-10-16T01:53:03;101265.13;;;21.43;61.40
51460;BME280;37534;39.772;2.718;2022-10-16T01:55:37;101267.94;;;22.36;63.18
51460;BME280;37534;39.772;2.718;2022-10-16T01:58:05;101286.91;;;22.92;60.05
51460;BME280;37534;39.772;2.718;2022-10-16T02:00:32;101300.31;;;23.15;59.35
51460;BME280;37534;39.772;2.718;2022-10-16T02:03:01;101294.66;;;23.32;60.72
51460;BME280;37534;39.772;2.718;2022-10-16T02:05:32;101299.94;;;23.32;62.06
51460;BME280;37534;39.772;2.718;2022-10-16T02:08:00;101303.94;;;23.25;65.22
51460;BME280;37534;39.772;2.718;2022-10-16T02:10:26;101314.72;;;23.22;67.24
51460;BME280;37534;39.772;2.718;2022-10-16T02:13:03;101296.06;;;23.00;69.94
51460;BME280;37534;39.772;2.718;2022-10-16T02:15:31;101305.88;;;23.10;71.67
51460;BME280;37534;39.772;2.718;2022-10-16T02:17:56;101304.81;;;23.13;73.20
51460;BME280;37534;39.772;2.718;2022-10-16T02:20:25;101289.97;;;22.99;73.81
51460;BME280;37534;39.772;2.718;2022-10-16T02:22:53;101285.84;;;22.95;66.62
51460;BME280;37534;39.772;2.718;2022-10-16T02:25:26;101282.06;;;22.73;73.51
51460;BME280;37534;39.772;2.718;2022-10-16T02:28:06;101278.50;;;22.74;71.66
51460;BME280;37534;39.772;2.718;2022-10-16T02:30:37;101269.97;;;22.84;72.77
51460;BME280;37534;39.772;2.718;2022-10-16T02:33:07;101273.56;;;22.95;68.83
51460;BME280;37534;39.772;2.718;2022-10-16T02:35:35;101257.66;;;22.84;65.89
51460;BME280;37534;39.772;2.718;2022-10-16T02:38:01;101239.75;;;22.89;71.01
51460;BME280;37534;39.772;2.718;2022-10-16T02:40:27;101232.38;;;22.94;73.40
51460;BME280;37534;39.772;2.718;2022-10-16T02:42:54;101236.72;;;22.83;75.47
51460;BME280;37534;39.772;2.718;2022-10-16T02:45:20;101222.31;;;22.88;77.34
51460;BME280;37534;39.772;2.718;2022-10-16T02:47:46;101212.16;;;22.95;80.82
51460;BME280;37534;39.772;2.718;2022-10-16T02:50:11;101205.38;;;22.80;79.70
51460;BME280;37534;39.772;2.718;2022-10-16T02:52:37;101196.22;;;22.85;77.57
51460;BME280;37534;39.772;2.718;2022-10-16T02:55:03;101199.16;;;22.81;73.85
51460;BME280;37534;39.772;2.718;2022-10-16T02:57:28;101194.09;;;22.90;70.00
51460;BME280;37534;39.772;2.718;2022-10-16T02:59:54;101189.88;;;22.88;67.68
51460;BME280;37534;39.772;2.718;2022-10-16T03:02:20;101181.81;;;22.78;62.84
51460;BME280;37534;39.772;2.718;2022-10-16T03:04:46;101187.66;;;22.94;58.21
51460;BME280;37534;39.772;2.718;2022-10-16T03:07:11;101186.09;;;22.92;58.69
51460;BME280;37534;39.772;2.718;2022-10-16T03:09:37;101199.03;;;23.08;53.32
51460;BME280;37534;39.772;2.718;2022-10-16T03:12:03;101182.72;;;23.03;54.85
51460;BME280;37534;39.772;2.718;2022-10-16T03:14:28;101191.88;;;23.10;50.79
51460;BME280;37534;39.772;2.718;2022-10-16T03:16:54;101176.81;;;22.99;53.92
51460;BME280;37534;39.772;2.718;2022-10-16T03:19:19;101190.56;;;22.66;55.56
51460;BME280;37534;39.772;2.718;2022-10-16T03:21:45;101188.66;;;22.42;53.58
51460;BME280;37534;39.772;2.718;2022-10-16T03:24:10;101192.13;;;22.30;53.51
51460;BME280;37534;39.772;2.718;2022-10-16T03:26:36;101189.22;;;21.94;56.29
51460;BME280;37534;39.772;2.718;2022-10-16T03:29:02;101198.66;;;21.97;55.19
51460;BME280;37534;39.772;2.718;2022-10-16T03:31:28;101188.34;;;21.94;54.95
51460;BME280;37534;39.772;2.718;2022-10-16T03:33:54;101200.25;;;21.99;55.75
51460;BME280;37534;39.772;2.718;2022-10-16T03:36:19;101190.78;;;21.97;54.37
51460;BME280;37534;39.772;2.718;2022-10-16T03:38:45;101188.22;;;22.23;47.00
51460;BME280;37534;39.772;2.718;2022-10-16T03:41:10;101197.84;;;22.22;51.81
51460;BME280;37534;39.772;2.718;2022-10-16T03:43:36;101184.97;;;22.32;46.35
51460;BME280;37534;39.772;2.718;2022-10-16T03:46:01;101190.44;;;22.29;44.22
51460;BME280;37534;39.772;2.718;2022-10-16T03:48:27;101198.53;;;22.77;41.05
51460;BME280;37534;39.772;2.718;2022-10-16T03:50:52;101199.31;;;23.16;40.54
51460;BME280;37534;39.772;2.718;2022-10-16T03:53:18;101195.66;;;23.43;40.40
51460;BME280;37534;39.772;2.718;2022-10-16T03:55:44;101194.97;;;23.52;41.20
51460;BME280;37534;39.772;2.718;2022-10-16T03:58:10;101188.03;;;23.51;43.16
51460;BME280;37534;39.772;2.718;2022-10-16T04:00:42;101208.91;;;23.54;44.92
51460;BME280;37534;39.772;2.718;2022-10-16T04:03:08;101205.91;;;23.59;48.53
51460;BME280;37534;39.772;2.718;2022-10-16T04:05:33;101212.78;;;23.48;51.63
51460;BME280;37534;39.772;2.718;2022-10-16T04:07:59;101210.63;;;23.42;56.23
51460;BME280;37534;39.772;2.718;2022-10-16T04:10:24;101226.41;;;23.42;59.19
51460;BME280;37534;39.772;2.718;2022-10-16T04:12:50;101199.91;;;23.32;60.64
51460;BME280;37534;39.772;2.718;2022-10-16T04:15:15;101216.31;;;23.36;58.97
51460;BME280;37534;39.772;2.718;2022-10-16T04:17:41;101199.25;;;23.42;63.67
51460;BME280;37534;39.772;2.718;2022-10-16T04:20:07;101211.66;;;23.40;62.03
51460;BME280;37534;39.772;2.718;2022-10-16T04:22:32;101222.19;;;23.40;62.53
51460;BME280;37534;39.772;2.718;2022-10-16T04:24:58;101216.00;;;23.41;62.31
51460;BME280;37534;39.772;2.718;2022-10-16T04:27:23;101222.59;;;23.46;67.43
51460;BME280;37534;39.772;2.718;2022-10-16T04:29:49;101228.22;;;23.42;66.38
51460;BME280;37534;39.772;2.718;2022-10-16T04:32:14;101220.06;;;23.45;67.85
51460;BME280;37534;39.772;2.718;2022-10-16T04:34:40;101218.63;;;23.41;67.28
51460;BME280;37534;39.772;2.718;2022-10-16T04:37:06;101221.03;;;23.44;67.26
51460;BME280;37534;39.772;2.718;2022-10-16T04:39:32;101218.91;;;23.49;65.54
51460;BME280;37534;39.772;2.718;2022-10-16T04:41:57;101224.41;;;23.46;66.37
51460;BME280;37534;39.772;2.718;2022-10-16T04:44:23;101234.78;;;23.60;66.67
51460;BME280;37534;39.772;2.718;2022-10-16T04:46:50;101232.59;;;23.54;71.04
51460;BME280;37534;39.772;2.718;2022-10-16T04:49:16;101231.00;;;23.51;65.70
51460;BME280;37534;39.772;2.718;2022-10-16T04:51:41;101238.47;;;23.58;66.61
51460;BME280;37534;39.772;2.718;2022-10-16T04:54:08;101246.69;;;23.53;68.88
51460;BME280;37534;39.772;2.718;2022-10-16T04:56:34;101253.97;;;23.49;69.08
51460;BME280;37534;39.772;2.718;2022-10-16T04:59:05;101260.44;;;23.45;67.92
51460;BME280;37534;39.772;2.718;2022-10-16T05:01:31;101258.84;;;23.43;70.09
51460;BME280;37534;39.772;2.718;2022-10-16T05:03:56;101262.31;;;23.43;67.38
51460;BME280;37534;39.772;2.718;2022-10-16T05:06:22;101292.03;;;23.45;69.44
51460;BME280;37534;39.772;2.718;2022-10-16T05:08:49;101279.50;;;23.36;76.99
51460;BME280;37534;39.772;2.718;2022-10-16T05:11:14;101284.06;;;23.21;72.98
51460;BME280;37534;39.772;2.718;2022-10-16T05:13:40;101298.47;;;23.28;73.42
51460;BME280;37534;39.772;2.718;2022-10-16T05:16:05;101293.22;;;23.28;74.08
51460;BME280;37534;39.772;2.718;2022-10-16T05:18:31;101297.22;;;23.21;76.04
51460;BME280;37534;39.772;2.718;2022-10-16T05:20:57;101306.31;;;23.17;76.87
51460;BME280;37534;39.772;2.718;2022-10-16T05:23:22;101302.38;;;23.23;77.41
51460;BME280;37534;39.772;2.718;2022-10-16T05:25:58;101303.78;;;23.15;78.12
51460;BME280;37534;39.772;2.718;2022-10-16T05:28:26;101310.91;;;23.01;74.15
51460;BME280;37534;39.772;2.718;2022-10-16T05:30:51;101321.66;;;22.85;69.72
51460;BME280;37534;39.772;2.718;2022-10-16T05:33:19;101254.25;;;22.31;69.67
51460;BME280;37534;39.772;2.718;2022-10-16T05:35:45;101313.19;;;22.67;76.38
51460;BME280;37534;39.772;2.718;2022-10-16T05:38:10;101316.25;;;22.61;77.87
51460;BME280;37534;39.772;2.718;2022-10-16T05:40:36;101323.00;;;22.77;80.44
51460;BME280;37534;39.772;2.718;2022-10-16T05:43:01;101308.38;;;22.73;81.25
51460;BME280;37534;39.772;2.718;2022-10-16T05:45:27;101328.47;;;22.87;80.17
51460;BME280;37534;39.772;2.718;2022-10-16T05:47:52;101316.50;;;22.83;80.96
51460;BME280;37534;39.772;2.718;2022-10-16T05:50:18;101313.22;;;22.80;80.46
51460;BME280;37534;39.772;2.718;2022-10-16T05:52:43;101323.94;;;22.76;78.53
51460;BME280;37534;39.772;2.718;2022-10-16T05:55:09;101326.03;;;22.46;73.43
51460;BME280;37534;39.772;2.718;2022-10-16T05:57:34;101331.72;;;21.98;75.60
51460;BME280;37534;39.772;2.718;2022-10-16T06:00:00;101324.19;;;21.64;78.09
51460;BME280;37534;39.772;2.718;2022-10-16T06:02:26;101320.16;;;21.44;79.01
51460;BME280;37534;39.772;2.718;2022-10-16T06:04:52;101319.31;;;21.30;80.88
51460;BME280;37534;39.772;2.718;2022-10-16T06:07:19;101327.94;;;21.32;79.06
51460;BME280;37534;39.772;2.718;2022-10-16T06:09:48;101336.09;;;21.27;77.84
51460;BME280;37534;39.772;2.718;2022-10-16T06:12:14;101345.84;;;21.11;78.24
51460;BME280;37534;39.772;2.718;2022-10-16T06:14:39;101343.66;;;20.88;78.59
51460;BME280;37534;39.772;2.718;2022-10-16T06:17:04;101353.09;;;20.77;80.29
51460;BME280;37534;39.772;2.718;2022-10-16T06:19:30;101344.66;;;20.72;80.93
51460;BME280;37534;39.772;2.718;2022-10-16T06:21:56;101360.28;;;20.73;80.51
51460;BME280;37534;39.772;2.718;2022-10-16T06:24:23;101361.25;;;20.56;81.61
51460;BME280;37534;39.772;2.718;2022-10-16T06:26:49;101357.28;;;20.65;80.36
51460;BME280;37534;39.772;2.718;2022-10-16T06:29:14;101362.69;;;20.62;79.80
51460;BME280;37534;39.772;2.718;2022-10-16T06:31:41;101351.59;;;20.57;80.04
51460;BME280;37534;39.772;2.718;2022-10-16T06:34:10;101381.00;;;20.78;78.72
51460;BME280;37534;39.772;2.718;2022-10-16T06:36:37;101376.81;;;20.75;78.86
51460;BME280;37534;39.772;2.718;2022-10-16T06:39:04;101375.56;;;20.66;80.45
51460;BME280;37534;39.772;2.718;2022-10-16T06:41:30;101388.28;;;20.73;81.31
51460;BME280;37534;39.772;2.718;2022-10-16T06:43:56;101390.81;;;20.74;81.22
51460;BME280;37534;39.772;2.718;2022-10-16T06:46:24;101386.63;;;20.72;80.95
51460;BME280;37534;39.772;2.718;2022-10-16T06:48:50;101395.16;;;20.75;82.05
51460;BME280;37534;39.772;2.718;2022-10-16T06:51:20;101396.75;;;20.78;82.20
51460;BME280;37534;39.772;2.718;2022-10-16T06:53:49;101391.50;;;20.78;84.24
51460;BME280;37534;39.772;2.718;2022-10-16T06:56:26;101406.69;;;20.87;86.36
51460;BME280;37534;39.772;2.718;2022-10-16T06:58:53;101406.69;;;20.87;86.43
51460;BME280;37534;39.772;2.718;2022-10-16T07:01:22;101408.56;;;20.85;85.76
51460;BME280;37534;39.772;2.718;2022-10-16T07:03:48;101413.06;;;20.83;87.85
51460;BME280;37534;39.772;2.718;2022-10-16T07:06:16;101412.13;;;20.84;86.16
51460;BME280;37534;39.772;2.718;2022-10-16T07:08:44;101418.72;;;20.91;87.64
51460;BME280;37534;39.772;2.718;2022-10-16T07:11:21;101403.84;;;20.76;88.98
51460;BME280;37534;39.772;2.718;2022-10-16T07:13:47;101416.81;;;20.79;90.22
51460;BME280;37534;39.772;2.718;2022-10-16T07:16:18;101408.72;;;20.82;88.77
51460;BME280;37534;39.772;2.718;2022-10-16T07:18:44;101419.06;;;20.85;88.70
51460;BME280;37534;39.772;2.718;2022-10-16T07:21:13;101416.09;;;20.91;86.57
51460;BME280;37534;39.772;2.718;2022-10-16T07:23:39;101422.09;;;20.93;87.04
51460;BME280;37534;39.772;2.718;2022-10-16T07:26:06;101432.03;;;21.02;86.51
51460;BME280;37534;39.772;2.718;2022-10-16T07:28:33;101432.81;;;21.19;86.26
51460;BME280;37534;39.772;2.718;2022-10-16T07:31:03;101428.88;;;21.26;82.60
51460;BME280;37534;39.772;2.718;2022-10-16T07:33:30;101426.66;;;21.34;82.51
51460;BME280;37534;39.772;2.718;2022-10-16T07:35:55;101432.66;;;21.36;82.10
51460;BME280;37534;39.772;2.718;2022-10-16T07:38:21;101445.06;;;21.63;79.05
51460;BME280;37534;39.772;2.718;2022-10-16T07:40:47;101437.38;;;21.74;81.03
51460;BME280;37534;39.772;2.718;2022-10-16T07:43:14;101444.47;;;22.57;76.44
51460;BME280;37534;39.772;2.718;2022-10-16T07:45:47;101455.81;;;23.50;72.91
51460;BME280;37534;39.772;2.718;2022-10-16T07:48:13;101445.69;;;23.96;69.26
51460;BME280;37534;39.772;2.718;2022-10-16T07:50:39;101458.81;;;24.45;68.32
51460;BME280;37534;39.772;2.718;2022-10-16T07:53:04;101458.25;;;25.24;65.67
51460;BME280;37534;39.772;2.718;2022-10-16T07:55:30;101454.34;;;26.20;60.21
51460;BME280;37534;39.772;2.718;2022-10-16T07:57:55;101462.19;;;27.49;58.11
51460;BME280;37534;39.772;2.718;2022-10-16T08:00:21;101459.84;;;28.47;50.31
51460;BME280;37534;39.772;2.718;2022-10-16T08:02:46;101471.56;;;28.35;50.45
51460;BME280;37534;39.772;2.718;2022-10-16T08:05:12;101469.50;;;29.54;47.37
51460;BME280;37534;39.772;2.718;2022-10-16T08:07:38;101472.84;;;30.75;44.98
51460;BME280;37534;39.772;2.718;2022-10-16T08:10:03;101474.91;;;31.86;40.08
51460;BME280;37534;39.772;2.718;2022-10-16T08:12:29;101470.78;;;32.75;38.93
51460;BME280;37534;39.772;2.718;2022-10-16T08:14:55;101475.56;;;33.77;37.78
51460;BME280;37534;39.772;2.718;2022-10-16T08:17:20;101480.81;;;34.56;35.62
51460;BME280;37534;39.772;2.718;2022-10-16T08:19:46;101481.19;;;35.44;34.48
51460;BME280;37534;39.772;2.718;2022-10-16T08:22:15;101486.56;;;35.59;31.30
51460;BME280;37534;39.772;2.718;2022-10-16T08:24:41;101469.88;;;35.19;32.16
51460;BME280;37534;39.772;2.718;2022-10-16T08:27:07;101475.47;;;34.94;31.87
51460;BME280;37534;39.772;2.718;2022-10-16T08:29:34;101481.25;;;34.45;33.28
51460;BME280;37534;39.772;2.718;2022-10-16T08:31:59;101474.72;;;35.38;31.99
51460;BME280;37534;39.772;2.718;2022-10-16T08:34:25;101476.69;;;34.69;32.67
51460;BME280;37534;39.772;2.718;2022-10-16T08:36:53;101490.22;;;35.88;32.06
51460;BME280;37534;39.772;2.718;2022-10-16T08:39:19;101485.03;;;36.87;29.86
51460;BME280;37534;39.772;2.718;2022-10-16T08:44:41;101493.56;;;35.90;30.73
51460;BME280;37534;39.772;2.718;2022-10-16T08:50:21;101494.63;;;38.15;28.91
51460;BME280;37534;39.772;2.718;2022-10-16T08:52:48;101492.41;;;38.92;26.25
51460;BME280;37534;39.772;2.718;2022-10-16T08:56:04;101483.28;;;38.86;25.95
51460;BME280;37534;39.772;2.718;2022-10-16T08:58:28;101490.72;;;38.91;26.36
51460;BME280;37534;39.772;2.718;2022-10-16T09:00:59;101500.50;;;38.98;26.02
51460;BME280;37534;39.772;2.718;2022-10-16T09:06:26;101500.25;;;39.27;24.59
51460;BME280;37534;39.772;2.718;2022-10-16T09:11:55;101500.19;;;40.05;24.26
51460;BME280;37534;39.772;2.718;2022-10-16T09:14:37;101506.53;;;40.18;25.25
51460;BME280;37534;39.772;2.718;2022-10-16T09:17:32;101503.19;;;41.23;24.35
51460;BME280;37534;39.772;2.718;2022-10-16T09:20:18;101503.81;;;42.11;22.69
51460;BME280;37534;39.772;2.718;2022-10-16T09:22:45;101504.31;;;42.43;21.55
51460;BME280;37534;39.772;2.718;2022-10-16T09:25:17;101506.00;;;41.84;22.47
51460;BME280;37534;39.772;2.718;2022-10-16T09:27:48;101506.88;;;42.14;22.79
51460;BME280;37534;39.772;2.718;2022-10-16T09:30:19;101508.44;;;41.55;22.01
51460;BME280;37534;39.772;2.718;2022-10-16T09:32:48;101516.06;;;40.84;22.48
51460;BME280;37534;39.772;2.718;2022-10-16T09:35:20;101514.78;;;41.30;23.25
51460;BME280;37534;39.772;2.718;2022-10-16T09:37:50;101516.88;;;41.28;21.78
51460;BME280;37534;39.772;2.718;2022-10-16T09:40:33;101520.19;;;41.67;23.05
51460;BME280;37534;39.772;2.718;2022-10-16T09:43:21;101526.22;;;40.89;22.26
51460;BME280;37534;39.772;2.718;2022-10-16T09:46:06;101527.59;;;40.98;22.28
51460;BME280;37534;39.772;2.718;2022-10-16T09:48:53;101526.44;;;41.49;22.17
51460;BME280;37534;39.772;2.718;2022-10-16T09:51:35;101526.25;;;40.57;22.97
51460;BME280;37534;39.772;2.718;2022-10-16T09:54:13;101526.44;;;41.31;22.46
51460;BME280;37534;39.772;2.718;2022-10-16T09:56:39;101526.56;;;42.22;22.55
51460;BME280;37534;39.772;2.718;2022-10-16T09:59:12;101531.72;;;41.93;22.67
51460;BME280;37534;39.772;2.718;2022-10-16T10:01:46;101529.38;;;42.69;21.84
51460;BME280;37534;39.772;2.718;2022-10-16T10:04:12;101525.97;;;42.97;22.61
51460;BME280;37534;39.772;2.718;2022-10-16T10:06:50;101518.19;;;43.13;22.45
51460;BME280;37534;39.772;2.718;2022-10-16T10:09:20;101526.28;;;43.48;22.41
51460;BME280;37534;39.772;2.718;2022-10-16T10:11:58;101523.59;;;44.05;22.21
51460;BME280;37534;39.772;2.718;2022-10-16T10:14:41;101530.91;;;44.85;21.27
51460;BME280;37534;39.772;2.718;2022-10-16T10:17:13;101522.16;;;44.49;21.92
51460;BME280;37534;39.772;2.718;2022-10-16T10:27:55;101531.09;;;45.83;21.01
51460;BME280;37534;39.772;2.718;2022-10-16T10:40:51;101503.50;;;46.77;19.79
51460;BME280;37534;39.772;2.718;2022-10-16T10:46:01;101500.31;;;47.58;19.26
51460;BME280;37534;39.772;2.718;2022-10-16T10:54:16;101506.81;;;46.41;20.19
51460;BME280;37534;39.772;2.718;2022-10-16T10:57:41;101509.16;;;47.08;19.62
51460;BME280;37534;39.772;2.718;2022-10-16T11:00:41;101510.06;;;46.38;19.85
51460;BME280;37534;39.772;2.718;2022-10-16T11:02:41;101505.56;;;46.54;19.70
51460;BME280;37534;39.772;2.718;2022-10-16T11:08:19;101500.13;;;47.07;19.50
51460;BME280;37534;39.772;2.718;2022-10-16T11:13:32;101496.41;;;46.76;19.60
51460;BME280;37534;39.772;2.718;2022-10-16T11:16:39;101497.00;;;46.45;19.97
51460;BME280;37534;39.772;2.718;2022-10-16T11:19:13;101501.09;;;46.43;20.27
51460;BME280;37534;39.772;2.718;2022-10-16T11:21:46;101496.50;;;45.62;20.57
51460;BME280;37534;39.772;2.718;2022-10-16T11:24:40;101496.34;;;46.01;20.23
51460;BME280;37534;39.772;2.718;2022-10-16T11:27:11;101486.56;;;45.72;20.61
51460;BME280;37534;39.772;2.718;2022-10-16T11:29:57;101492.75;;;46.22;20.67
51460;BME280;37534;39.772;2.718;2022-10-16T11:32:40;101495.84;;;46.36;20.46
51460;BME280;37534;39.772;2.718;2022-10-16T11:35:19;101515.09;;;45.43;21.54
51460;BME280;37534;39.772;2.718;2022-10-16T11:37:49;101501.00;;;45.73;21.69
51460;BME280;37534;39.772;2.718;2022-10-16T11:40:32;101498.53;;;45.71;21.63
51460;BME280;37534;39.772;2.718;2022-10-16T11:43:29;101505.78;;;45.16;22.63
51460;BME280;37534;39.772;2.718;2022-10-16T11:46:19;101498.81;;;44.87;22.74
51460;BME280;37534;39.772;2.718;2022-10-16T11:51:40;101504.75;;;44.84;22.70
51460;BME280;37534;39.772;2.718;2022-10-16T11:54:45;101500.25;;;44.72;22.28
51460;BME280;37534;39.772;2.718;2022-10-16T11:57:39;101508.16;;;44.57;22.76
51460;BME280;37534;39.772;2.718;2022-10-16T12:00:15;101501.22;;;44.66;23.01
51460;BME280;37534;39.772;2.718;2022-10-16T12:05:28;101506.66;;;44.66;22.17
51460;BME280;37534;39.772;2.718;2022-10-16T12:08:11;101502.03;;;45.01;21.93
51460;BME280;37534;39.772;2.718;2022-10-16T12:10:45;101487.13;;;45.08;21.83
51460;BME280;37534;39.772;2.718;2022-10-16T12:13:35;101492.09;;;45.11;21.95
51460;BME280;37534;39.772;2.718;2022-10-16T12:18:44;101490.69;;;43.09;24.46
51460;BME280;37534;39.772;2.718;2022-10-16T12:21:11;101479.31;;;44.39;22.91
51460;BME280;37534;39.772;2.718;2022-10-16T12:23:51;101477.06;;;44.36;22.46
51460;BME280;37534;39.772;2.718;2022-10-16T12:26:27;101473.78;;;44.90;21.98
51460;BME280;37534;39.772;2.718;2022-10-16T12:28:55;101460.53;;;45.15;21.78
51460;BME280;37534;39.772;2.718;2022-10-16T12:31:21;101449.91;;;45.36;21.91
51460;BME280;37534;39.772;2.718;2022-10-16T12:34:14;101460.81;;;45.90;21.14
51460;BME280;37534;39.772;2.718;2022-10-16T12:36:43;101458.47;;;46.04;21.16
51460;BME280;37534;39.772;2.718;2022-10-16T12:39:27;101464.06;;;45.87;21.41
51460;BME280;37534;39.772;2.718;2022-10-16T12:44:53;101471.28;;;45.05;23.09
51460;BME280;37534;39.772;2.718;2022-10-16T12:49:57;101472.34;;;44.82;22.96
51460;BME280;37534;39.772;2.718;2022-10-16T12:52:27;101454.16;;;45.05;22.48
51460;BME280;37534;39.772;2.718;2022-10-16T12:54:56;101450.22;;;45.17;22.24
51460;BME280;37534;39.772;2.718;2022-10-16T13:00:23;101432.19;;;45.11;22.35
51460;BME280;37534;39.772;2.718;2022-10-16T13:08:31;101436.66;;;45.23;22.04
51460;BME280;37534;39.772;2.718;2022-10-16T13:14:08;101434.09;;;45.33;21.97
51460;BME280;37534;39.772;2.718;2022-10-16T13:19:34;101438.59;;;44.83;22.75
51460;BME280;37534;39.772;2.718;2022-10-16T13:30:45;101424.31;;;43.57;23.21
51460;BME280;37534;39.772;2.718;2022-10-16T13:33:20;101435.03;;;43.93;22.88
51460;BME280;37534;39.772;2.718;2022-10-16T13:35:57;101446.16;;;44.25;22.99
51460;BME280;37534;39.772;2.718;2022-10-16T13:38:24;101442.41;;;43.97;22.89
51460;BME280;37534;39.772;2.718;2022-10-16T13:46:05;101431.53;;;43.11;24.16
51460;BME280;37534;39.772;2.718;2022-10-16T13:48:32;101436.56;;;43.43;23.99
51460;BME280;37534;39.772;2.718;2022-10-16T13:51:19;101441.50;;;43.46;23.71
51460;BME280;37534;39.772;2.718;2022-10-16T13:53:45;101444.69;;;42.55;25.10
51460;BME280;37534;39.772;2.718;2022-10-16T13:56:19;101443.16;;;42.95;24.92
51460;BME280;37534;39.772;2.718;2022-10-16T13:58:46;101434.75;;;42.72;24.86
51460;BME280;37534;39.772;2.718;2022-10-16T14:01:27;101440.56;;;42.52;24.85
51460;BME280;37534;39.772;2.718;2022-10-16T14:04:01;101436.19;;;42.51;25.01
51460;BME280;37534;39.772;2.718;2022-10-16T14:06:27;101434.69;;;42.56;25.32
51460;BME280;37534;39.772;2.718;2022-10-16T14:09:07;101438.44;;;42.54;25.36
51460;BME280;37534;39.772;2.718;2022-10-16T14:11:42;101433.56;;;42.21;25.46
51460;BME280;37534;39.772;2.718;2022-10-16T14:14:11;101437.94;;;42.34;25.00
51460;BME280;37534;39.772;2.718;2022-10-16T14:16:40;101442.56;;;42.03;25.44
51460;BME280;37534;39.772;2.718;2022-10-16T14:19:17;101437.44;;;41.53;25.93
51460;BME280;37534;39.772;2.718;2022-10-16T14:21:44;101441.53;;;41.44;25.96
51460;BME280;37534;39.772;2.718;2022-10-16T14:24:33;101438.22;;;41.23;26.51
51460;BME280;37534;39.772;2.718;2022-10-16T14:27:00;101445.50;;;40.85;26.66
51460;BME280;37534;39.772;2.718;2022-10-16T14:29:28;101449.16;;;40.47;27.30
51460;BME280;37534;39.772;2.718;2022-10-16T14:34:42;101449.06;;;40.29;27.86
51460;BME280;37534;39.772;2.718;2022-10-16T14:37:22;101451.72;;;40.42;28.08
51460;BME280;37534;39.772;2.718;2022-10-16T14:39:49;101444.03;;;40.33;28.31
51460;BME280;37534;39.772;2.718;2022-10-16T14:42:17;101450.41;;;40.20;28.14
51460;BME280;37534;39.772;2.718;2022-10-16T14:44:44;101444.47;;;39.66;29.27